
Distance (Route):
Temperature : 0.1°C
Humidity : 42.6%
Pressure : 0hPa| Receiver | Frames | First received | Last received |
|---|---|---|---|
| LZ4TU-5 | 68 | 2026-09-02 11:07:28 | 2026-09-02 13:03:28 |
| Receiver | Date | Latitude | Longitude | Direction | Speed | Altitude | Climb | Temperature | Humidity | Pressure | Voltage | Killtimer | Uptime | BKT | XDATA |
|---|---|---|---|---|---|---|---|---|---|---|---|---|---|---|---|
| LZ4TU-5 | 2026-09-02 13:03:28 | 44.61377 | 27.57057 | 78° | 22km/h | 3721m | -8.6m/s | 0.1°C | 42.6% | 0hPa | 0V | 08:13:00 | 00:00:00 | 00:00:00 | |
| LZ4TU-5 | 2026-09-02 13:03:24 | 44.61373 | 27.57024 | 75° | 22km/h | 3754m | -9.6m/s | 0.0°C | 37.5% | 0hPa | 0V | 08:13:00 | 00:00:00 | 00:00:00 | |
| LZ4TU-5 | 2026-09-02 13:03:19 | 44.61368 | 27.56983 | 82° | 22km/h | 3808m | -11.3m/s | 0.1°C | 29.0% | 0hPa | 0V | 08:13:00 | 00:00:00 | 00:00:00 | |
| LZ4TU-5 | 2026-09-02 13:03:14 | 44.61364 | 27.56940 | 83° | 24km/h | 3853m | -9.4m/s | -0.2°C | 42.9% | 0hPa | 0V | 08:13:00 | 00:00:00 | 00:00:00 | |
| LZ4TU-5 | 2026-09-02 13:03:09 | 44.61363 | 27.56899 | 92° | 22km/h | 3900m | -10.4m/s | 0.2°C | 38.9% | 0hPa | 0V | 08:13:00 | 00:00:00 | 00:00:00 | |
| LZ4TU-5 | 2026-09-02 13:03:05 | 44.61364 | 27.56862 | 94° | 29km/h | 3940m | -10.8m/s | 0.2°C | 23.7% | 0hPa | 0V | 08:13:00 | 00:00:00 | 00:00:00 | |
| LZ4TU-5 | 2026-09-02 13:03:00 | 44.61366 | 27.56816 | 95° | 26km/h | 3983m | -9.5m/s | -0.0°C | 14.6% | 0hPa | 0V | 08:14:00 | 00:00:00 | 00:00:00 | |
| LZ4TU-5 | 2026-09-02 13:02:55 | 44.61369 | 27.56770 | 95° | 29km/h | 4030m | -8.8m/s | -0.4°C | 14.6% | 0hPa | 0V | 08:14:00 | 00:00:00 | 00:00:00 | |
| LZ4TU-5 | 2026-09-02 13:02:51 | 44.61373 | 27.56728 | 99° | 29km/h | 4064m | -9.0m/s | -0.7°C | 14.8% | 0hPa | 0V | 08:14:00 | 00:00:00 | 00:00:00 | |
| LZ4TU-5 | 2026-09-02 13:02:47 | 44.61377 | 27.56688 | 98° | 31km/h | 4102m | -8.5m/s | -1.0°C | 15.6% | 0hPa | 0V | 08:14:00 | 00:00:00 | 00:00:00 | |
| LZ4TU-5 | 2026-09-02 13:02:38 | 44.61389 | 27.56596 | 102° | 31km/h | 4179m | -9.7m/s | -1.7°C | 17.0% | 0hPa | 0V | 08:14:00 | 00:00:00 | 00:00:00 | |
| LZ4TU-5 | 2026-09-02 13:02:33 | 44.61397 | 27.56542 | 104° | 33km/h | 4222m | -9.1m/s | -2.0°C | 16.4% | 0hPa | 0V | 08:14:00 | 00:00:00 | 00:00:00 | |
| LZ4TU-5 | 2026-09-02 13:02:29 | 44.61406 | 27.56499 | 105° | 31km/h | 4257m | -10.0m/s | -2.2°C | 15.9% | 0hPa | 0V | 08:14:00 | 00:00:00 | 00:00:00 | |
| LZ4TU-5 | 2026-09-02 13:02:25 | 44.61414 | 27.56458 | 105° | 33km/h | 4294m | -8.4m/s | -2.5°C | 15.5% | 0hPa | 0V | 08:14:00 | 00:00:00 | 00:00:00 | |
| LZ4TU-5 | 2026-09-02 13:02:20 | 44.61425 | 27.56402 | 107° | 35km/h | 4343m | -10.3m/s | -2.8°C | 15.1% | 0hPa | 0V | 08:14:00 | 00:00:00 | 00:00:00 | |
| LZ4TU-5 | 2026-09-02 13:02:15 | 44.61436 | 27.56341 | 105° | 33km/h | 4392m | -10.4m/s | -2.6°C | 12.6% | 0hPa | 0V | 08:14:00 | 00:00:00 | 00:00:00 | |
| LZ4TU-5 | 2026-09-02 13:02:11 | 44.61444 | 27.56279 | 102° | 38km/h | 4440m | -8.6m/s | -2.6°C | 10.4% | 0hPa | 0V | 08:15:00 | 00:00:00 | 00:00:00 | |
| LZ4TU-5 | 2026-09-02 13:02:06 | 44.61452 | 27.56225 | 105° | 38km/h | 4476m | -8.4m/s | -2.6°C | 9.2% | 0hPa | 0V | 08:15:00 | 00:00:00 | 00:00:00 | |
| LZ4TU-5 | 2026-09-02 13:02:01 | 44.61464 | 27.56162 | 104° | 35km/h | 4520m | -9.4m/s | -2.7°C | 0% | 0hPa | 0V | 08:15:00 | 00:00:00 | 00:00:00 | |
| LZ4TU-5 | 2026-09-02 13:01:56 | 44.61475 | 27.56097 | 103° | 38km/h | 4570m | -9.8m/s | -2.9°C | 0% | 0hPa | 0V | 08:15:00 | 00:00:00 | 00:00:00 | |
| LZ4TU-5 | 2026-09-02 13:01:52 | 44.61484 | 27.56045 | 106° | 40km/h | 4607m | -10.5m/s | -3.2°C | 0% | 0hPa | 0V | 08:15:00 | 00:00:00 | 00:00:00 | |
| LZ4TU-5 | 2026-09-02 13:01:48 | 44.61494 | 27.55992 | 106° | 37km/h | 4645m | -8.9m/s | -3.4°C | 0% | 0hPa | 0V | 08:15:00 | 00:00:00 | 00:00:00 | |
| LZ4TU-5 | 2026-09-02 13:01:43 | 44.61506 | 27.55928 | 106° | 35km/h | 4697m | -9.4m/s | -3.7°C | 0% | 0hPa | 0V | 08:15:00 | 00:00:00 | 00:00:00 | |
| LZ4TU-5 | 2026-09-02 13:01:38 | 44.61517 | 27.55864 | 105° | 37km/h | 4743m | -8.0m/s | -4.0°C | 0% | 0hPa | 0V | 08:15:00 | 00:00:00 | 00:00:00 | |
| LZ4TU-5 | 2026-09-02 13:01:34 | 44.61525 | 27.55814 | 102° | 35km/h | 4781m | -8.9m/s | -4.2°C | 0% | 0hPa | 0V | 08:15:00 | 00:00:00 | 00:00:00 | |
| LZ4TU-5 | 2026-09-02 13:01:30 | 44.61532 | 27.55766 | 100° | 35km/h | 4820m | -9.2m/s | -4.4°C | 0% | 0hPa | 0V | 08:15:00 | 00:00:00 | 00:00:00 | |
| LZ4TU-5 | 2026-09-02 13:01:25 | 44.61538 | 27.55707 | 100° | 33km/h | 4864m | -10.0m/s | -4.7°C | 0% | 0hPa | 0V | 08:15:00 | 00:00:00 | 00:00:00 | |
| LZ4TU-5 | 2026-09-02 13:01:20 | 44.61545 | 27.55642 | 100° | 37km/h | 4912m | -9.9m/s | -5.1°C | 0% | 0hPa | 0V | 00:00:00 | 00:00:00 | 00:00:00 | |
| LZ4TU-5 | 2026-09-02 12:51:50 | 44.61271 | 27.40128 | 82° | 111km/h | 11121m | -13.0m/s | -48.6°C | 0% | 0hPa | 0V | 00:00:00 | 00:00:00 | 00:00:00 | |
| LZ4TU-5 | 2026-09-02 12:51:45 | 44.61252 | 27.39936 | 84° | 110km/h | 11179m | -12.5m/s | -48.9°C | 0% | 0hPa | 0V | 00:00:00 | 00:00:00 | 00:00:00 | |
| LZ4TU-5 | 2026-09-02 11:49:09 | 44.50980 | 26.71535 | 81° | 111km/h | 11206m | 3.9m/s | -49.0°C | 0% | 0hPa | 0V | 00:00:00 | 00:00:00 | 00:00:00 | |
| LZ4TU-5 | 2026-09-02 11:49:06 | 44.50961 | 26.71379 | 83° | 113km/h | 11191m | 4.5m/s | -48.9°C | 0% | 0hPa | 0V | 00:00:00 | 00:00:00 | 00:00:00 | |
| LZ4TU-5 | 2026-09-02 11:45:18 | 44.49867 | 26.62612 | 77° | 99km/h | 10280m | 4.2m/s | -43.3°C | 0% | 0hPa | 0V | 00:00:00 | 00:00:00 | 00:00:00 | |
| LZ4TU-5 | 2026-09-02 11:45:13 | 44.49842 | 26.62479 | 77° | 97km/h | 10264m | 4.9m/s | -43.2°C | 0% | 0hPa | 0V | 00:00:00 | 00:00:00 | 00:00:00 | |
| LZ4TU-5 | 2026-09-02 11:26:27 | 44.49128 | 26.32605 | 103° | 64km/h | 5956m | 3.7m/s | -11.2°C | 0% | 0hPa | 0V | 00:00:00 | 00:00:00 | 00:00:00 | |
| LZ4TU-5 | 2026-09-02 11:26:23 | 44.49143 | 26.32517 | 105° | 62km/h | 5940m | 3.4m/s | -11.0°C | 0% | 0hPa | 0V | 00:00:00 | 00:00:00 | 00:00:00 | |
| LZ4TU-5 | 2026-09-02 11:25:15 | 44.49357 | 26.31095 | 102° | 62km/h | 5668m | 3.8m/s | -9.5°C | 0% | 0hPa | 0V | 00:00:00 | 00:00:00 | 00:00:00 | |
| LZ4TU-5 | 2026-09-02 11:25:10 | 44.49373 | 26.30992 | 105° | 58km/h | 5648m | 3.5m/s | -9.4°C | 0% | 0hPa | 0V | 00:00:00 | 00:00:00 | 00:00:00 | |
| LZ4TU-5 | 2026-09-02 11:23:59 | 44.49643 | 26.29597 | 107° | 55km/h | 5367m | 3.7m/s | -7.4°C | 0% | 0hPa | 0V | 00:00:00 | 00:00:00 | 00:00:00 | |
| LZ4TU-5 | 2026-09-02 11:23:55 | 44.49658 | 26.29523 | 108° | 55km/h | 5351m | 3.1m/s | -7.3°C | 0% | 0hPa | 0V | 00:00:00 | 00:00:00 | 00:00:00 | |
| LZ4TU-5 | 2026-09-02 11:22:47 | 44.49940 | 26.28298 | 108° | 51km/h | 5092m | 3.1m/s | -5.3°C | 0% | 0hPa | 0V | 00:00:00 | 00:00:00 | 00:00:00 | |
| LZ4TU-5 | 2026-09-02 11:22:43 | 44.49956 | 26.28214 | 102° | 47km/h | 5072m | 4.3m/s | -5.2°C | 0% | 0hPa | 0V | 00:00:00 | 00:00:00 | 00:00:00 | |
| LZ4TU-5 | 2026-09-02 11:21:32 | 44.50201 | 26.27080 | 107° | 47km/h | 4804m | 4.7m/s | -3.6°C | 0% | 0hPa | 0V | 00:00:00 | 00:00:00 | 00:00:00 | |
| LZ4TU-5 | 2026-09-02 11:21:27 | 44.50219 | 26.26997 | 109° | 49km/h | 4784m | 4.2m/s | -3.6°C | 0% | 0hPa | 0V | 00:00:00 | 00:00:00 | 00:00:00 | |
| LZ4TU-5 | 2026-09-02 11:20:17 | 44.50380 | 26.25920 | 98° | 42km/h | 4522m | 3.6m/s | -2.5°C | 0% | 0hPa | 0V | 00:00:00 | 00:00:00 | 00:00:00 | |
| LZ4TU-5 | 2026-09-02 11:20:12 | 44.50383 | 26.25843 | 94° | 44km/h | 4503m | 4.9m/s | -2.6°C | 0% | 0hPa | 0V | 00:00:00 | 00:00:00 | 00:00:00 | |
| LZ4TU-5 | 2026-09-02 11:19:02 | 44.50514 | 26.24897 | 102° | 35km/h | 4250m | 4.1m/s | -2.1°C | 0% | 0hPa | 0V | 00:00:00 | 00:00:00 | 00:00:00 | |
| LZ4TU-5 | 2026-09-02 11:18:58 | 44.50520 | 26.24849 | 99° | 33km/h | 4236m | 4.5m/s | -2.0°C | 0% | 0hPa | 0V | 00:00:00 | 00:00:00 | 00:00:00 | |
| LZ4TU-5 | 2026-09-02 11:17:56 | 44.50608 | 26.24132 | 100° | 26km/h | 4008m | 3.3m/s | -0.6°C | 0% | 0hPa | 0V | 00:00:00 | 00:00:00 | 00:00:00 | |
| LZ4TU-5 | 2026-09-02 11:17:51 | 44.50611 | 26.24086 | 94° | 27km/h | 3988m | 3.6m/s | -0.4°C | 0% | 0hPa | 0V | 00:00:00 | 00:00:00 | 00:00:00 | |
| LZ4TU-5 | 2026-09-02 11:16:47 | 44.50637 | 26.23515 | 89° | 24km/h | 3749m | 3.7m/s | 0°C | 0% | 0hPa | 0V | 00:00:00 | 00:00:00 | 00:00:00 | |
| LZ4TU-5 | 2026-09-02 11:16:42 | 44.50639 | 26.23478 | 96° | 24km/h | 3731m | 2.5m/s | 0°C | 0% | 0hPa | 0V | 00:00:00 | 00:00:00 | 00:00:00 | |
| LZ4TU-5 | 2026-09-02 11:15:37 | 44.50610 | 26.22978 | 77° | 29km/h | 3481m | 4.4m/s | 0°C | 0% | 0hPa | 0V | 00:00:00 | 00:00:00 | 00:00:00 | |
| LZ4TU-5 | 2026-09-02 11:15:32 | 44.50604 | 26.22927 | 87° | 29km/h | 3463m | 3.1m/s | 0°C | 0% | 0hPa | 0V | 00:00:00 | 00:00:00 | 00:00:00 | |
| LZ4TU-5 | 2026-09-02 11:14:28 | 44.50497 | 26.22244 | 85° | 26km/h | 3210m | 5.0m/s | 0°C | 0% | 0hPa | 0V | 00:00:00 | 00:00:00 | 00:00:00 | |
| LZ4TU-5 | 2026-09-02 11:14:23 | 44.50495 | 26.22199 | 90° | 26km/h | 3190m | 3.5m/s | 0°C | 0% | 0hPa | 0V | 00:00:00 | 00:00:00 | 00:00:00 | |
| LZ4TU-5 | 2026-09-02 11:13:18 | 44.50519 | 26.21610 | 98° | 26km/h | 2936m | 4.1m/s | 0°C | 0% | 0hPa | 0V | 00:00:00 | 00:00:00 | 00:00:00 | |
| LZ4TU-5 | 2026-09-02 11:13:14 | 44.50523 | 26.21577 | 92° | 26km/h | 2921m | 3.9m/s | 0°C | 0% | 0hPa | 0V | 00:00:00 | 00:00:00 | 00:00:00 | |
| LZ4TU-5 | 2026-09-02 11:12:10 | 44.50521 | 26.21064 | 79° | 22km/h | 2667m | 4.8m/s | 0°C | 0% | 0hPa | 0V | 00:00:00 | 00:00:00 | 00:00:00 | |
| LZ4TU-5 | 2026-09-02 11:12:05 | 44.50517 | 26.21028 | 75° | 20km/h | 2647m | 3.5m/s | 0°C | 0% | 0hPa | 0V | 00:00:00 | 00:00:00 | 00:00:00 | |
| LZ4TU-5 | 2026-09-02 11:11:00 | 44.50463 | 26.20590 | 80° | 18km/h | 2390m | 3.3m/s | 0°C | 0% | 0hPa | 0V | 00:00:00 | 00:00:00 | 00:00:00 | |
| LZ4TU-5 | 2026-09-02 11:10:56 | 44.50458 | 26.20566 | 76° | 16km/h | 2375m | 3.5m/s | 0°C | 0% | 0hPa | 0V | 00:00:00 | 00:00:00 | 00:00:00 | |
| LZ4TU-5 | 2026-09-02 11:09:52 | 44.50384 | 26.20204 | 71° | 13km/h | 2145m | 3.6m/s | 0°C | 0% | 0hPa | 0V | 00:00:00 | 00:00:00 | 00:00:00 | |
| LZ4TU-5 | 2026-09-02 11:09:47 | 44.50376 | 26.20184 | 52° | 13km/h | 2127m | 4.2m/s | 0°C | 0% | 0hPa | 0V | 00:00:00 | 00:00:00 | 00:00:00 | |
| LZ4TU-5 | 2026-09-02 11:08:42 | 44.50241 | 26.19829 | 47° | 22km/h | 1860m | 3.7m/s | 0°C | 0% | 0hPa | 0V | 00:00:00 | 00:00:00 | 00:00:00 | |
| LZ4TU-5 | 2026-09-02 11:08:37 | 44.50218 | 26.19794 | 49° | 31km/h | 1836m | 3.8m/s | 0°C | 0% | 0hPa | 0V | 00:00:00 | 00:00:00 | 00:00:00 | |
| LZ4TU-5 | 2026-09-02 11:07:33 | 44.50005 | 26.19637 | 12° | 16km/h | 1581m | 4.5m/s | 0°C | 0% | 0hPa | 0V | 00:00:00 | 00:00:00 | 00:00:00 | |
| LZ4TU-5 | 2026-09-02 11:07:28 | 44.49995 | 26.19627 | 76° | 16km/h | 1560m | 4.9m/s | 0°C | 0% | 0hPa | 0V | 00:00:00 | 00:00:00 | 00:00:00 |